createdAt,value
2022-08-19T00:01:30.738Z,22.30
2022-08-19T00:03:59.789Z,20.23
2022-08-19T00:06:28.682Z,21.90
2022-08-19T00:08:57.487Z,19.20
2022-08-19T00:11:26.487Z,23.53
2022-08-19T00:13:57.633Z,22.73
2022-08-19T00:16:26.820Z,21.40
2022-08-19T00:18:56.364Z,23.47
2022-08-19T00:21:25.019Z,22.47
2022-08-19T00:23:53.291Z,23.97
2022-08-19T00:26:22.035Z,23.87
2022-08-19T00:28:50.166Z,23.67
2022-08-19T00:31:19.744Z,26.23
2022-08-19T00:33:49.062Z,26.07
2022-08-19T00:36:17.288Z,24.07
2022-08-19T00:38:45.685Z,25.87
2022-08-19T00:41:16.452Z,21.43
2022-08-19T00:43:44.586Z,28.97
2022-08-19T00:46:13.960Z,24.30
2022-08-19T00:48:43.494Z,25.83
2022-08-19T00:51:11.612Z,24.83
2022-08-19T00:53:40.670Z,25.17
2022-08-19T00:56:09.483Z,26.07
2022-08-19T00:58:38.106Z,24.87
2022-08-19T01:01:08.714Z,27.27
2022-08-19T01:03:58.026Z,24.70
2022-08-19T01:06:27.057Z,27.13
2022-08-19T01:08:56.378Z,26.97
2022-08-19T01:11:24.466Z,27.97
2022-08-19T01:13:54.376Z,27.10
2022-08-19T01:16:26.120Z,30.27
2022-08-19T01:18:54.390Z,29.40
2022-08-19T01:21:31.333Z,29.07
2022-08-19T01:24:00.806Z,28.30
2022-08-19T01:26:29.625Z,31.20
2022-08-19T01:29:02.143Z,30.03
2022-08-19T01:31:33.484Z,30.10
2022-08-19T01:34:03.671Z,32.20
2022-08-19T01:36:33.713Z,27.47
2022-08-19T01:39:04.707Z,28.67
2022-08-19T01:41:32.825Z,30.30
2022-08-19T01:44:03.855Z,33.13
2022-08-19T01:46:46.527Z,30.57
2022-08-19T01:49:14.813Z,31.23
2022-08-19T01:51:42.856Z,31.33
2022-08-19T01:54:13.710Z,30.33
2022-08-19T01:56:52.196Z,30.90
2022-08-19T01:59:23.878Z,31.60
2022-08-19T02:01:52.173Z,31.43
2022-08-19T02:04:20.222Z,31.87
2022-08-19T02:06:49.211Z,31.63
2022-08-19T02:09:18.794Z,32.50
2022-08-19T02:11:46.941Z,29.77
2022-08-19T02:14:15.166Z,34.23
2022-08-19T02:16:43.438Z,32.23
2022-08-19T02:19:11.497Z,35.23
2022-08-19T02:21:39.706Z,30.33
2022-08-19T02:24:08.206Z,32.80
2022-08-19T02:26:37.843Z,30.20
2022-08-19T02:29:06.612Z,30.60
2022-08-19T02:31:34.674Z,36.03
2022-08-19T02:34:03.012Z,30.13
2022-08-19T02:36:32.072Z,32.40
2022-08-19T02:38:59.172Z,32.27
2022-08-19T02:41:29.218Z,39.60
2022-08-19T02:44:28.625Z,31.83
2022-08-19T02:46:51.673Z,30.63
2022-08-19T02:49:20.704Z,44.27
2022-08-19T02:51:49.273Z,35.97
2022-08-19T02:54:17.848Z,37.77
2022-08-19T02:56:47.059Z,36.07
2022-08-19T02:59:16.443Z,36.10
2022-08-19T03:01:44.701Z,35.83
2022-08-19T03:04:15.247Z,37.67
2022-08-19T03:06:46.028Z,35.20
2022-08-19T03:09:14.658Z,32.60
2022-08-19T03:11:43.338Z,38.67
2022-08-19T03:14:12.587Z,33.30
2022-08-19T03:16:47.878Z,35.80
2022-08-19T03:19:18.199Z,35.53
2022-08-19T03:21:47.087Z,34.90
2022-08-19T03:24:17.336Z,35.53
2022-08-19T03:26:48.910Z,35.00
2022-08-19T03:29:30.226Z,35.63
2022-08-19T03:32:01.940Z,35.77
2022-08-19T03:34:35.194Z,35.43
2022-08-19T03:37:08.822Z,39.40
2022-08-19T03:39:39.753Z,36.07
2022-08-19T03:42:32.205Z,36.27
2022-08-19T03:44:56.261Z,36.03
2022-08-19T03:47:26.573Z,37.67
2022-08-19T03:49:54.648Z,36.10
2022-08-19T03:52:22.654Z,35.63
2022-08-19T03:54:50.850Z,36.83
2022-08-19T03:57:18.918Z,39.97
2022-08-19T03:59:47.110Z,39.73
2022-08-19T04:02:15.448Z,42.00
2022-08-19T04:04:46.018Z,39.30
2022-08-19T04:07:17.230Z,40.37
2022-08-19T04:09:45.965Z,38.37
2022-08-19T04:12:14.030Z,39.50
2022-08-19T04:14:42.758Z,36.33
2022-08-19T04:17:11.044Z,36.10
2022-08-19T04:19:39.618Z,37.50
2022-08-19T04:22:09.319Z,40.93
2022-08-19T04:24:38.067Z,37.47
2022-08-19T04:27:07.570Z,37.50
2022-08-19T04:29:36.009Z,46.03
2022-08-19T04:32:09.026Z,38.57
2022-08-19T04:35:02.407Z,41.67
2022-08-19T04:37:35.165Z,39.00
2022-08-19T04:40:23.850Z,38.77
2022-08-19T04:42:52.404Z,42.43
2022-08-19T04:45:22.831Z,42.63
2022-08-19T04:47:57.916Z,47.53
2022-08-19T04:50:28.427Z,45.77
2022-08-19T04:52:58.053Z,47.83
2022-08-19T04:55:27.404Z,49.23
2022-08-19T04:57:56.177Z,46.23
2022-08-19T05:00:24.357Z,52.10
2022-08-19T05:02:52.773Z,48.13
2022-08-19T05:05:21.956Z,49.37
2022-08-19T05:07:50.090Z,49.37
2022-08-19T05:10:20.167Z,51.07
2022-08-19T05:12:48.481Z,50.53
2022-08-19T05:15:16.900Z,50.93
2022-08-19T05:18:05.235Z,55.83
2022-08-19T05:20:50.767Z,50.07
2022-08-19T05:23:22.835Z,53.63
2022-08-19T05:25:53.328Z,57.57
2022-08-19T05:28:22.448Z,54.57
2022-08-19T05:30:51.972Z,60.07
2022-08-19T05:33:20.548Z,53.97
2022-08-19T05:35:49.503Z,52.87
2022-08-19T05:38:18.604Z,58.47
2022-08-19T05:40:50.425Z,54.00
2022-08-19T05:43:20.113Z,60.97
2022-08-19T05:45:48.293Z,51.57
2022-08-19T05:48:21.677Z,53.20
2022-08-19T05:50:51.178Z,57.23
2022-08-19T05:53:19.884Z,51.87
2022-08-19T05:55:47.930Z,49.90
2022-08-19T05:58:16.205Z,60.77
2022-08-19T06:00:46.913Z,54.83
2022-08-19T06:03:16.940Z,51.37
2022-08-19T06:05:51.911Z,52.40
2022-08-19T06:08:34.643Z,50.03
2022-08-19T06:11:19.648Z,60.83
2022-08-19T06:13:59.690Z,52.27
2022-08-19T06:16:32.709Z,47.67
2022-08-19T06:19:05.512Z,49.20
2022-08-19T06:21:35.273Z,46.37
2022-08-19T06:24:04.638Z,52.07
2022-08-19T06:26:33.843Z,52.27
2022-08-19T06:29:02.865Z,48.33
2022-08-19T06:31:34.457Z,47.10
2022-08-19T06:34:04.301Z,48.73
2022-08-19T06:36:34.851Z,49.03
2022-08-19T06:39:04.305Z,48.00
2022-08-19T06:41:32.925Z,48.13
2022-08-19T06:44:01.379Z,49.83
2022-08-19T06:46:33.578Z,42.87
2022-08-19T06:49:04.037Z,42.53
2022-08-19T06:54:03.088Z,42.30
2022-08-19T06:56:35.607Z,40.60
2022-08-19T06:59:07.906Z,42.87
2022-08-19T07:04:14.933Z,48.13
2022-08-19T07:06:44.836Z,44.47
2022-08-19T07:09:19.104Z,41.63
2022-08-19T07:11:55.715Z,43.47
2022-08-19T07:14:27.682Z,48.80
2022-08-19T07:16:57.844Z,41.50
2022-08-19T07:19:29.985Z,42.13
2022-08-19T07:22:02.658Z,42.23
2022-08-19T07:24:34.851Z,42.57
2022-08-19T07:27:10.396Z,41.90
2022-08-19T07:29:43.649Z,41.10
2022-08-19T07:32:13.532Z,42.70
2022-08-19T07:34:43.317Z,38.63
2022-08-19T07:37:12.355Z,40.53
2022-08-19T07:39:41.526Z,37.83
2022-08-19T07:42:13.306Z,41.93
2022-08-19T07:44:42.597Z,42.23
2022-08-19T07:47:48.353Z,43.03
2022-08-19T07:50:13.621Z,48.67
2022-08-19T07:52:47.120Z,44.53
2022-08-19T07:55:42.261Z,47.43
2022-08-19T07:58:08.781Z,47.30
2022-08-19T08:00:39.054Z,45.47
2022-08-19T08:03:09.988Z,47.90
2022-08-19T08:05:57.565Z,45.53
2022-08-19T08:08:43.912Z,48.43
2022-08-19T08:11:15.583Z,42.43
2022-08-19T08:13:44.574Z,43.47
2022-08-19T08:16:14.182Z,45.90
2022-08-19T08:18:50.803Z,42.53
2022-08-19T08:21:23.086Z,36.07
2022-08-19T08:23:54.504Z,45.87
2022-08-19T08:26:26.142Z,41.63
2022-08-19T08:28:54.493Z,43.67
2022-08-19T08:31:23.099Z,42.73
2022-08-19T08:33:51.443Z,42.50
2022-08-19T08:36:20.094Z,41.93
2022-08-19T08:38:50.015Z,41.50
2022-08-19T08:41:28.919Z,38.87
2022-08-19T08:43:58.406Z,43.10
2022-08-19T08:46:33.104Z,43.87
2022-08-19T08:49:08.469Z,41.70
2022-08-19T08:54:20.433Z,41.17
2022-08-19T08:56:51.580Z,40.90
2022-08-19T08:59:26.128Z,40.63
2022-08-19T09:01:54.456Z,43.93
2022-08-19T09:04:23.931Z,50.87
2022-08-19T09:06:57.314Z,49.43
2022-08-19T09:09:33.966Z,44.90
2022-08-19T09:12:11.795Z,43.07
2022-08-19T09:14:50.779Z,45.00
2022-08-19T09:17:22.073Z,51.70
2022-08-19T09:19:54.015Z,43.70
2022-08-19T09:22:26.111Z,65.20
2022-08-19T09:24:57.894Z,45.70
2022-08-19T09:27:41.883Z,44.67
2022-08-19T09:30:17.144Z,41.47
2022-08-19T09:32:47.560Z,52.50
2022-08-19T09:35:25.455Z,40.70
2022-08-19T09:38:02.355Z,39.67
2022-08-19T09:40:39.645Z,43.10
2022-08-19T09:43:13.497Z,37.60
2022-08-19T09:45:52.896Z,40.10
2022-08-19T09:48:24.997Z,41.13
2022-08-19T09:50:57.328Z,39.57
2022-08-19T09:53:28.224Z,36.90
2022-08-19T09:56:07.337Z,42.57
2022-08-19T09:58:41.474Z,38.73
2022-08-19T10:01:13.603Z,39.83
2022-08-19T10:03:45.766Z,41.50
2022-08-19T10:06:44.052Z,41.50
2022-08-19T10:09:13.770Z,35.03
2022-08-19T10:11:54.532Z,44.47
2022-08-19T10:14:28.500Z,38.63
2022-08-19T10:17:04.707Z,34.70
2022-08-19T10:19:55.946Z,41.00
2022-08-19T10:22:27.351Z,37.03
2022-08-19T10:24:59.032Z,37.83
2022-08-19T10:27:36.382Z,37.10
2022-08-19T10:30:09.922Z,39.67
2022-08-19T10:32:40.400Z,36.67
2022-08-19T10:35:22.059Z,42.37
2022-08-19T10:37:57.499Z,40.93
2022-08-19T10:40:48.953Z,52.60
2022-08-19T10:43:21.737Z,42.57
2022-08-19T10:45:58.935Z,44.70
2022-08-19T10:48:32.019Z,38.83
2022-08-19T10:51:26.279Z,40.50
2022-08-19T10:53:59.122Z,38.27
2022-08-19T10:56:47.064Z,40.13
2022-08-19T10:59:21.314Z,40.77
2022-08-19T11:02:02.337Z,38.03
2022-08-19T11:04:36.590Z,39.43
2022-08-19T11:07:08.070Z,40.97
2022-08-19T11:09:43.020Z,41.50
2022-08-19T11:12:16.903Z,41.63
2022-08-19T11:14:51.418Z,38.87
2022-08-19T11:17:20.580Z,37.87
2022-08-19T11:19:50.301Z,37.47
2022-08-19T11:22:19.762Z,35.07
2022-08-19T11:24:49.143Z,37.50
2022-08-19T11:27:18.830Z,38.07
2022-08-19T11:29:48.790Z,34.83
2022-08-19T11:32:17.728Z,34.53
2022-08-19T11:34:47.393Z,36.20
2022-08-19T11:37:16.716Z,35.37
2022-08-19T11:39:51.873Z,33.23
2022-08-19T11:42:41.284Z,34.03
2022-08-19T11:45:11.808Z,38.67
2022-08-19T11:47:41.890Z,30.73
2022-08-19T11:50:10.843Z,28.90
2022-08-19T11:52:40.757Z,29.30
2022-08-19T11:55:10.525Z,24.27
2022-08-19T11:57:39.747Z,28.63
2022-08-19T12:00:12.774Z,28.20
2022-08-19T12:02:40.956Z,25.77
2022-08-19T12:05:13.074Z,26.07
2022-08-19T12:07:43.824Z,26.40
2022-08-19T12:10:13.864Z,32.20
2022-08-19T12:12:58.826Z,27.90
2022-08-19T12:15:38.376Z,26.57
2022-08-19T12:18:23.312Z,25.60
2022-08-19T12:20:55.800Z,25.90
2022-08-19T12:23:25.166Z,27.10
2022-08-19T12:25:53.298Z,28.27
2022-08-19T12:28:27.330Z,29.23
2022-08-19T12:31:00.010Z,25.60
2022-08-19T12:33:29.791Z,27.07
2022-08-19T12:36:06.977Z,24.27
2022-08-19T12:38:41.190Z,25.77
2022-08-19T12:41:24.806Z,23.10
2022-08-19T12:43:53.678Z,19.57
2022-08-19T12:46:25.397Z,19.70
2022-08-19T12:48:56.222Z,17.53
2022-08-19T12:51:26.845Z,18.23
2022-08-19T12:54:01.992Z,14.97
2022-08-19T12:56:34.937Z,16.03
2022-08-19T12:59:11.957Z,15.80
2022-08-19T13:01:48.471Z,15.57
2022-08-19T13:04:18.491Z,15.97
2022-08-19T13:06:47.612Z,16.60
2022-08-19T13:09:17.257Z,13.70
2022-08-19T13:11:46.060Z,15.43
2022-08-19T13:14:21.399Z,15.47
2022-08-19T13:16:52.962Z,14.73
2022-08-19T13:19:27.654Z,15.67
2022-08-19T13:57:06.308Z,18.63
2022-08-19T13:59:38.776Z,16.23
2022-08-19T14:02:09.702Z,18.43
2022-08-19T14:04:39.797Z,15.77
2022-08-19T14:07:09.217Z,14.67
2022-08-19T14:09:40.563Z,15.50
2022-08-19T14:12:11.902Z,13.80
2022-08-19T14:14:43.975Z,16.80
2022-08-19T14:17:14.678Z,14.00
2022-08-19T14:19:48.250Z,15.27
2022-08-19T14:22:22.240Z,15.53
2022-08-19T14:24:52.973Z,17.90
2022-08-19T14:27:27.233Z,13.27
2022-08-19T14:32:54.271Z,13.37
2022-08-19T14:35:27.111Z,13.23
2022-08-19T14:37:59.158Z,11.93
2022-08-19T14:40:31.781Z,12.97
2022-08-19T14:43:04.929Z,13.30
2022-08-19T14:45:40.736Z,12.37
2022-08-19T14:48:19.303Z,12.47
2022-08-19T14:50:51.415Z,13.20
2022-08-19T14:53:23.033Z,13.87
2022-08-19T14:55:53.895Z,14.93
2022-08-19T14:58:30.443Z,11.20
2022-08-19T15:01:02.517Z,11.97
2022-08-19T15:03:36.800Z,11.27
2022-08-19T15:10:08.078Z,11.53
2022-08-19T15:12:39.086Z,13.13
2022-08-19T15:15:14.294Z,14.83
2022-08-19T15:17:51.817Z,11.50
2022-08-19T15:20:25.299Z,10.83
2022-08-19T15:22:54.053Z,9.83
2022-08-19T15:25:23.148Z,12.83
2022-08-19T15:28:02.897Z,10.90
2022-08-19T15:30:34.511Z,10.13
2022-08-19T15:33:06.466Z,9.97
2022-08-19T15:35:49.985Z,10.80
2022-08-19T15:38:20.492Z,9.73
2022-08-19T15:40:52.543Z,9.73
2022-08-19T15:43:23.072Z,8.20
2022-08-19T15:45:53.491Z,9.63
2022-08-19T15:48:22.906Z,9.20
2022-08-19T15:51:02.756Z,9.40
2022-08-19T15:53:32.122Z,7.97
2022-08-19T15:56:00.745Z,9.20
2022-08-19T15:58:52.246Z,9.20
2022-08-19T16:01:45.307Z,10.20
2022-08-19T16:04:33.901Z,12.67
2022-08-19T16:07:04.173Z,13.43
2022-08-19T16:09:51.842Z,12.00
2022-08-19T16:12:22.287Z,13.90
2022-08-19T16:14:58.124Z,14.40
2022-08-19T16:17:33.577Z,13.67
2022-08-19T16:20:04.619Z,14.97
2022-08-19T16:23:06.873Z,15.80
2022-08-19T16:25:47.643Z,15.07
2022-08-19T16:28:18.331Z,15.87
2022-08-19T16:30:51.004Z,19.70
2022-08-19T16:33:23.454Z,23.27
2022-08-19T16:36:00.539Z,19.00
2022-08-19T16:38:38.075Z,21.43
2022-08-19T16:41:08.149Z,18.83
2022-08-19T16:43:39.441Z,23.33
2022-08-19T16:46:08.094Z,8.83
2022-08-19T16:48:43.453Z,12.03
2022-08-19T16:51:12.603Z,10.00
2022-08-19T16:53:43.324Z,8.30
2022-08-19T16:56:12.408Z,17.10
2022-08-19T16:58:41.336Z,12.57
2022-08-19T17:01:14.132Z,10.40
2022-08-19T17:03:44.433Z,11.53
2022-08-19T17:06:15.920Z,10.40
2022-08-19T17:08:48.940Z,10.00
2022-08-19T17:11:19.548Z,12.47
2022-08-19T17:13:51.160Z,12.23
2022-08-19T17:16:22.277Z,7.13
2022-08-19T17:18:55.166Z,5.73
2022-08-19T17:21:28.295Z,7.67
2022-08-19T17:24:01.123Z,6.57
2022-08-19T17:26:30.856Z,8.47
2022-08-19T17:29:03.818Z,9.37
2022-08-19T17:31:35.289Z,5.70
2022-08-19T17:34:08.693Z,9.97
2022-08-19T17:36:39.421Z,6.63
2022-08-19T17:39:13.151Z,10.10
2022-08-19T17:41:45.678Z,7.10
2022-08-19T17:44:16.411Z,7.70
2022-08-19T17:46:47.278Z,6.87
2022-08-19T17:49:22.483Z,13.43
2022-08-19T17:51:52.996Z,7.13
2022-08-19T17:54:33.334Z,7.90
2022-08-19T17:57:03.373Z,6.53
2022-08-19T17:59:32.209Z,7.90
2022-08-19T18:02:01.629Z,6.77
2022-08-19T18:04:31.645Z,6.83
2022-08-19T18:07:04.289Z,6.10
2022-08-19T18:09:42.407Z,7.47
2022-08-19T18:12:12.971Z,9.60
2022-08-19T18:14:42.488Z,8.47
2022-08-19T18:17:15.333Z,6.50
2022-08-19T18:19:45.389Z,5.67
2022-08-19T18:22:27.481Z,7.50
2022-08-19T18:24:57.195Z,6.83
2022-08-19T18:27:25.389Z,6.97
2022-08-19T18:29:59.564Z,8.43
2022-08-19T18:32:34.054Z,7.30
2022-08-19T18:35:11.175Z,8.00
2022-08-19T18:37:40.410Z,7.57
2022-08-19T18:40:37.844Z,8.23
2022-08-19T18:43:25.585Z,7.07
2022-08-19T18:46:15.903Z,10.93
2022-08-19T18:49:05.441Z,7.43
2022-08-19T18:51:35.536Z,7.80
2022-08-19T18:54:04.449Z,7.83
2022-08-19T18:56:33.337Z,7.73
2022-08-19T18:59:02.396Z,9.53
2022-08-19T19:01:33.148Z,8.70
2022-08-19T19:04:04.006Z,11.13
2022-08-19T19:06:37.993Z,9.17
2022-08-19T19:09:07.788Z,7.43
2022-08-19T19:11:38.883Z,8.77
2022-08-19T19:14:23.019Z,8.80
2022-08-19T19:17:02.032Z,10.00
2022-08-19T19:19:31.822Z,8.17
2022-08-19T19:22:04.827Z,8.87
2022-08-19T19:24:37.555Z,8.73
2022-08-19T19:27:08.448Z,7.67
2022-08-19T19:29:37.788Z,9.27
2022-08-19T19:32:07.444Z,10.90
2022-08-19T19:34:38.137Z,9.07
2022-08-19T19:37:08.509Z,9.03
2022-08-19T19:39:46.013Z,7.87
2022-08-19T19:42:20.313Z,10.00
2022-08-19T19:44:50.746Z,6.60
2022-08-19T19:47:19.668Z,7.30
2022-08-19T19:50:18.197Z,7.83
2022-08-19T19:52:41.716Z,8.70
2022-08-19T19:55:18.245Z,9.40
2022-08-19T19:57:47.601Z,8.90
2022-08-19T20:00:18.790Z,7.80
2022-08-19T20:02:50.177Z,8.67
2022-08-19T20:05:21.548Z,7.93
2022-08-19T20:08:10.090Z,6.70
2022-08-19T20:10:38.836Z,9.10
2022-08-19T20:13:08.694Z,9.33
2022-08-19T20:15:42.154Z,8.17
2022-08-19T20:18:13.449Z,10.47
2022-08-19T20:20:41.869Z,8.23
2022-08-19T20:23:12.236Z,8.50
2022-08-19T20:25:41.111Z,7.73
2022-08-19T20:28:09.727Z,9.53
2022-08-19T20:30:39.540Z,8.17
2022-08-19T20:33:14.653Z,9.60
2022-08-19T20:35:44.938Z,8.67
2022-08-19T20:38:14.954Z,7.70
2022-08-19T20:40:43.353Z,9.83
2022-08-19T20:43:13.080Z,9.77
2022-08-19T20:45:41.693Z,10.17
2022-08-19T20:48:12.371Z,8.80
2022-08-19T20:50:41.583Z,13.10
2022-08-19T20:53:16.814Z,9.90
2022-08-19T20:55:46.334Z,8.23
2022-08-19T21:17:05.493Z,10.30
2022-08-19T21:19:34.136Z,11.37
2022-08-19T21:22:02.740Z,12.37
2022-08-19T21:24:31.770Z,12.20
2022-08-19T21:27:00.387Z,14.10
2022-08-19T21:29:28.744Z,14.70
2022-08-19T21:31:57.151Z,15.23
2022-08-19T21:34:28.481Z,12.13
2022-08-19T21:36:57.039Z,13.73
2022-08-19T21:39:25.242Z,13.97
2022-08-19T21:41:53.814Z,12.63
2022-08-19T21:44:22.664Z,15.87
2022-08-19T21:46:50.935Z,12.90
2022-08-19T21:49:19.989Z,19.60
2022-08-19T21:51:49.888Z,13.80
2022-08-19T21:54:18.057Z,11.63
2022-08-19T21:56:47.171Z,12.33
2022-08-19T21:59:16.951Z,11.47
2022-08-19T22:01:50.489Z,12.20
2022-08-19T22:04:22.530Z,10.47
2022-08-19T22:06:52.671Z,12.07
2022-08-19T22:09:20.890Z,12.37
2022-08-19T22:11:49.319Z,12.77
2022-08-19T22:14:17.583Z,13.27
2022-08-19T22:16:46.330Z,13.73
2022-08-19T22:19:15.021Z,15.30
2022-08-19T22:21:43.332Z,12.30
2022-08-19T22:24:13.064Z,11.47
2022-08-19T22:26:41.729Z,11.70
2022-08-19T22:29:10.967Z,12.90
2022-08-19T22:31:44.665Z,15.83
2022-08-19T22:34:15.761Z,12.83
2022-08-19T22:36:43.869Z,12.37
2022-08-19T22:39:13.940Z,11.70
2022-08-19T22:41:42.381Z,11.27
2022-08-19T22:44:11.510Z,9.17
2022-08-19T22:46:40.007Z,11.70
2022-08-19T22:49:08.541Z,10.70
2022-08-19T22:51:53.881Z,13.00
2022-08-19T22:54:23.775Z,14.07
2022-08-19T22:56:52.753Z,12.27
2022-08-19T22:59:21.445Z,15.80
2022-08-19T23:01:50.069Z,14.30
2022-08-19T23:04:18.489Z,14.20
2022-08-19T23:06:46.802Z,11.73
2022-08-19T23:09:16.731Z,13.63
2022-08-19T23:11:47.251Z,14.47
2022-08-19T23:14:18.019Z,11.17
2022-08-19T23:16:51.021Z,19.13
2022-08-19T23:19:20.859Z,11.40
2022-08-19T23:21:50.561Z,11.80
2022-08-19T23:24:19.212Z,13.87
2022-08-19T23:27:06.571Z,15.37
2022-08-19T23:29:52.906Z,11.77
2022-08-19T23:32:22.537Z,15.80
2022-08-19T23:34:50.958Z,13.17
2022-08-19T23:37:19.385Z,14.13
2022-08-19T23:39:47.834Z,16.90
2022-08-19T23:42:17.478Z,14.73
2022-08-19T23:44:52.211Z,15.20
2022-08-19T23:47:22.018Z,13.07
2022-08-19T23:49:50.824Z,11.70
2022-08-19T23:52:19.171Z,14.67
2022-08-19T23:54:47.726Z,12.73
2022-08-19T23:57:17.338Z,12.13
2022-08-19T23:59:46.316Z,12.07
